Time;durP1;ratioP1;P1;durP2;ratioP2;P2;SDS_P1;SDS_P2;PMS_P1;PMS_P2;Temp;Humidity;BMP_temperature;BMP_pressure;BME280_temperature;BME280_humidity;BME280_pressure;Samples;Min_cycle;Max_cycle;Signal;HPM_P1;HPM_P2
2023/06/15 00:01:15;;;;;;;11.60;5.00;;;13.80;99.90;;;;;;4997022;28;20026;-78
2023/06/15 00:03:43;;;;;;;10.50;5.15;;;13.70;99.90;;;;;;4997581;28;20041;-78
2023/06/15 00:06:09;;;;;;;8.18;4.50;;;13.70;99.90;;;;;;4997825;28;20038;-79
2023/06/15 00:08:34;;;;;;;10.13;4.80;;;13.70;99.90;;;;;;4997981;28;20096;-78
2023/06/15 00:11:00;;;;;;;12.80;4.85;;;13.60;99.90;;;;;;4998125;28;20125;-79
2023/06/15 00:13:26;;;;;;;9.88;4.57;;;13.60;99.90;;;;;;4996764;28;20087;-79
2023/06/15 00:15:54;;;;;;;10.88;4.72;;;13.60;99.90;;;;;;4997269;28;20050;-79
2023/06/15 00:18:20;;;;;;;11.80;4.80;;;13.50;99.90;;;;;;4998161;28;20030;-79
2023/06/15 00:20:45;;;;;;;9.75;5.45;;;13.50;99.90;;;;;;4996909;28;20576;-78
2023/06/15 00:23:11;;;;;;;8.77;4.95;;;13.50;99.90;;;;;;4996391;28;20045;-79
2023/06/15 00:25:37;;;;;;;11.00;5.00;;;13.50;99.90;;;;;;4996658;28;20049;-78
2023/06/15 00:28:03;;;;;;;6.10;4.55;;;13.50;99.90;;;;;;4996540;28;20038;-79
2023/06/15 00:30:28;;;;;;;9.82;4.95;;;13.40;99.90;;;;;;4997613;28;20030;-79
2023/06/15 00:32:54;;;;;;;10.82;4.97;;;13.40;99.90;;;;;;4997730;28;20034;-78
2023/06/15 00:35:21;;;;;;;9.85;5.20;;;13.30;99.90;;;;;;4996560;28;20505;-78
2023/06/15 00:37:46;;;;;;;14.15;5.32;;;13.30;99.90;;;;;;4997156;28;20037;-78
2023/06/15 00:40:12;;;;;;;12.25;4.80;;;13.20;99.90;;;;;;4997733;28;20041;-79
2023/06/15 00:42:38;;;;;;;10.77;4.90;;;13.20;99.90;;;;;;4997346;28;20037;-79
2023/06/15 00:45:04;;;;;;;9.15;4.80;;;13.20;99.90;;;;;;4997306;28;20034;-78
2023/06/15 00:47:32;;;;;;;11.02;4.90;;;13.10;99.90;;;;;;4996356;28;20026;-79
2023/06/15 00:49:58;;;;;;;12.75;5.32;;;13.00;99.90;;;;;;4997448;28;20052;-78
2023/06/15 00:52:24;;;;;;;9.52;5.38;;;13.00;99.90;;;;;;4997663;28;20391;-79
2023/06/15 00:54:51;;;;;;;9.82;5.53;;;12.90;99.90;;;;;;4996951;28;20405;-79
2023/06/15 00:57:18;;;;;;;10.55;5.70;;;12.90;99.90;;;;;;4996033;28;20034;-78
2023/06/15 00:59:44;;;;;;;12.85;5.47;;;12.80;99.90;;;;;;4996930;28;20045;-78
2023/06/15 01:02:12;;;;;;;11.73;5.30;;;12.80;99.90;;;;;;4998049;28;20034;-78
2023/06/15 01:04:39;;;;;;;7.55;5.10;;;12.80;99.90;;;;;;5000192;28;20860;-78
2023/06/15 01:07:10;;;;;;;11.30;5.57;;;12.80;99.90;;;;;;4998220;28;20034;-78
2023/06/15 01:09:37;;;;;;;13.68;6.22;;;12.80;99.90;;;;;;4998923;28;20029;-78
2023/06/15 01:12:05;;;;;;;13.43;5.50;;;12.70;99.90;;;;;;4998834;28;20021;-79
2023/06/15 01:14:33;;;;;;;11.15;5.88;;;12.70;99.90;;;;;;4996764;28;20505;-78
2023/06/15 01:17:08;;;;;;;8.90;5.38;;;12.70;99.90;;;;;;4996842;28;20069;-78
2023/06/15 01:19:57;;;;;;;11.55;6.50;;;12.70;99.90;;;;;;4996410;28;20036;-79
2023/06/15 01:22:29;;;;;;;10.07;4.95;;;12.70;99.90;;;;;;4996074;28;20786;-78
2023/06/15 01:25:14;;;;;;;10.68;5.22;;;12.70;99.90;;;;;;4995840;28;20035;-79
2023/06/15 01:27:41;;;;;;;12.45;5.10;;;12.70;99.90;;;;;;4995645;28;20037;-79
2023/06/15 01:30:09;;;;;;;10.90;5.30;;;12.60;99.90;;;;;;4996498;28;20052;-78
2023/06/15 01:32:35;;;;;;;10.00;4.93;;;12.60;99.90;;;;;;4994902;28;20038;-79
2023/06/15 01:35:00;;;;;;;8.55;5.22;;;12.60;99.90;;;;;;4996593;28;20518;-78
2023/06/15 01:37:26;;;;;;;11.15;5.20;;;12.60;99.90;;;;;;4995660;28;20124;-79
2023/06/15 01:39:52;;;;;;;12.23;5.55;;;12.60;99.90;;;;;;4996593;28;21372;-78
2023/06/15 01:42:18;;;;;;;7.22;5.13;;;12.50;99.90;;;;;;4995270;28;20060;-78
2023/06/15 01:44:44;;;;;;;10.15;5.38;;;12.50;99.90;;;;;;4995553;28;20057;-78
2023/06/15 01:47:11;;;;;;;8.50;5.03;;;12.50;99.90;;;;;;4996551;28;21083;-78
2023/06/15 01:49:37;;;;;;;11.10;5.45;;;12.50;99.90;;;;;;4997037;28;20035;-78
2023/06/15 01:52:03;;;;;;;9.70;5.38;;;12.50;99.90;;;;;;4996505;28;20116;-78
2023/06/15 01:54:28;;;;;;;9.52;5.25;;;12.40;99.90;;;;;;4995043;28;20075;-78
2023/06/15 01:56:54;;;;;;;12.55;5.53;;;12.40;99.90;;;;;;4994829;28;20152;-78
2023/06/15 01:59:19;;;;;;;9.77;5.97;;;12.40;99.90;;;;;;4996271;28;20065;-78
2023/06/15 02:01:45;;;;;;;10.95;5.63;;;12.40;99.90;;;;;;4995251;28;20533;-78
2023/06/15 02:04:10;;;;;;;8.23;5.32;;;12.40;99.90;;;;;;4995875;28;20033;-78
2023/06/15 02:06:36;;;;;;;12.02;5.13;;;12.30;99.90;;;;;;4995862;28;20037;-78
2023/06/15 02:09:02;;;;;;;11.07;5.57;;;12.30;99.90;;;;;;4994990;28;20042;-78
2023/06/15 02:11:28;;;;;;;10.80;5.40;;;12.30;99.90;;;;;;4996327;28;20085;-79
2023/06/15 02:13:53;;;;;;;9.10;5.20;;;12.30;99.90;;;;;;4995938;28;20030;-78
2023/06/15 02:16:19;;;;;;;12.52;5.35;;;12.30;99.90;;;;;;4994752;28;20053;-78
2023/06/15 02:18:45;;;;;;;11.38;5.70;;;12.30;99.90;;;;;;4994840;28;20040;-79
2023/06/15 02:21:11;;;;;;;11.52;5.60;;;12.30;99.90;;;;;;4996011;28;20022;-78
2023/06/15 02:23:37;;;;;;;8.52;5.28;;;12.20;99.90;;;;;;4996023;28;20037;-78
2023/06/15 02:26:02;;;;;;;8.93;5.32;;;12.20;99.90;;;;;;4995333;28;20475;-78
2023/06/15 02:28:28;;;;;;;11.80;5.57;;;12.20;99.90;;;;;;4995486;28;20033;-78
2023/06/15 02:30:53;;;;;;;9.65;5.22;;;12.20;99.90;;;;;;4994696;28;20073;-78
2023/06/15 02:33:19;;;;;;;9.95;5.80;;;12.20;99.90;;;;;;4995788;28;20044;-78
2023/06/15 02:35:44;;;;;;;8.18;6.03;;;12.20;99.90;;;;;;4994323;28;20402;-80
2023/06/15 02:38:11;;;;;;;11.13;5.32;;;12.20;99.90;;;;;;4997304;28;20494;-79
2023/06/15 02:40:37;;;;;;;9.90;5.15;;;12.20;99.90;;;;;;4999626;28;20027;-79
2023/06/15 02:43:03;;;;;;;8.90;5.25;;;12.20;99.90;;;;;;4999825;28;20463;-79
2023/06/15 02:45:29;;;;;;;10.43;5.65;;;12.20;99.90;;;;;;4997727;28;20034;-78
2023/06/15 02:47:56;;;;;;;12.32;5.75;;;12.20;99.90;;;;;;4999129;28;20482;-79
2023/06/15 02:50:21;;;;;;;8.57;5.22;;;12.20;99.90;;;;;;4999933;28;20502;-78
2023/06/15 02:52:47;;;;;;;11.23;5.60;;;12.20;99.90;;;;;;4999495;28;20056;-78
2023/06/15 02:55:15;;;;;;;8.88;5.70;;;12.20;99.90;;;;;;4998749;28;20475;-79
2023/06/15 02:57:41;;;;;;;11.80;5.63;;;12.20;99.90;;;;;;4998790;28;20044;-78
2023/06/15 03:00:11;;;;;;;7.88;5.43;;;12.20;99.90;;;;;;4999102;28;20034;-79
2023/06/15 03:02:37;;;;;;;11.93;6.10;;;12.20;99.90;;;;;;4998837;28;20120;-78
2023/06/15 03:05:03;;;;;;;10.98;5.80;;;12.20;99.90;;;;;;4998837;28;20483;-79
2023/06/15 03:07:30;;;;;;;10.15;5.70;;;12.10;99.90;;;;;;4999095;28;20513;-79
2023/06/15 03:09:55;;;;;;;11.05;6.13;;;12.10;99.90;;;;;;4998532;28;20037;-79
2023/06/15 03:12:21;;;;;;;13.23;5.90;;;12.10;99.90;;;;;;4999553;28;20019;-78
2023/06/15 03:14:53;;;;;;;9.15;5.97;;;12.10;99.90;;;;;;4998938;28;20072;-79
2023/06/15 03:17:21;;;;;;;14.45;6.38;;;12.10;99.90;;;;;;4998160;28;20107;-78
2023/06/15 03:19:47;;;;;;;13.65;6.13;;;12.10;99.90;;;;;;4998670;28;20082;-78
2023/06/15 03:22:14;;;;;;;9.98;5.78;;;12.00;99.90;;;;;;4998564;28;20060;-78
2023/06/15 03:24:41;;;;;;;8.45;5.38;;;12.00;99.90;;;;;;4999078;28;20595;-79
2023/06/15 03:27:09;;;;;;;8.82;5.78;;;12.00;99.90;;;;;;4997887;28;20037;-79
2023/06/15 03:29:36;;;;;;;10.93;5.45;;;11.90;99.90;;;;;;4997917;28;20624;-79
2023/06/15 03:32:09;;;;;;;10.95;6.10;;;11.90;99.90;;;;;;4998527;28;20044;-79
2023/06/15 03:34:38;;;;;;;10.20;5.43;;;11.90;99.90;;;;;;4998782;28;20041;-78
2023/06/15 03:37:05;;;;;;;9.55;5.70;;;11.90;99.90;;;;;;4997315;28;20045;-78
2023/06/15 03:39:31;;;;;;;10.77;5.90;;;11.90;99.90;;;;;;4998657;28;20044;-78
2023/06/15 03:41:56;;;;;;;13.88;6.15;;;11.80;99.90;;;;;;4998335;28;20038;-78
2023/06/15 03:44:22;;;;;;;8.88;6.25;;;11.80;99.90;;;;;;4998106;28;20061;-78
2023/06/15 03:46:47;;;;;;;12.95;6.35;;;11.80;99.90;;;;;;4997920;28;20065;-78
2023/06/15 03:49:14;;;;;;;11.77;6.25;;;11.80;99.90;;;;;;4997114;28;20119;-78
2023/06/15 03:51:39;;;;;;;13.32;6.63;;;11.80;99.90;;;;;;4998494;28;20209;-78
2023/06/15 03:54:05;;;;;;;15.50;6.63;;;11.80;99.90;;;;;;4998607;28;21559;-78
2023/06/15 03:56:31;;;;;;;14.90;6.43;;;11.80;99.90;;;;;;4997243;28;20041;-79
2023/06/15 03:58:57;;;;;;;10.80;5.75;;;11.90;99.90;;;;;;4997676;28;21546;-78
2023/06/15 04:01:24;;;;;;;10.23;5.82;;;11.90;99.90;;;;;;4997569;28;20045;-78
2023/06/15 04:03:50;;;;;;;11.60;6.47;;;11.90;99.90;;;;;;4997896;28;20490;-78
2023/06/15 04:06:16;;;;;;;8.82;5.95;;;11.90;99.90;;;;;;4997482;28;20049;-78
2023/06/15 04:08:42;;;;;;;12.15;6.70;;;12.00;99.90;;;;;;4997513;28;20557;-78
2023/06/15 04:11:07;;;;;;;12.32;6.57;;;12.00;99.90;;;;;;4998552;28;20042;-78
2023/06/15 04:13:33;;;;;;;13.60;6.45;;;12.00;99.90;;;;;;4997693;28;20115;-78
2023/06/15 04:15:58;;;;;;;13.00;6.55;;;12.00;99.90;;;;;;4996701;28;20038;-79
2023/06/15 04:18:24;;;;;;;10.25;6.47;;;12.10;99.90;;;;;;4998452;28;20031;-78
2023/06/15 04:20:51;;;;;;;10.88;7.07;;;12.10;99.90;;;;;;4996498;28;20042;-78
2023/06/15 04:23:17;;;;;;;16.20;8.32;;;12.10;99.90;;;;;;4997596;28;20092;-79
2023/06/15 04:25:43;;;;;;;17.27;8.30;;;12.20;99.90;;;;;;4996717;28;20033;-79
2023/06/15 04:28:12;;;;;;;14.90;9.70;;;12.20;99.90;;;;;;4997981;28;20075;-78
2023/06/15 04:30:40;;;;;;;19.30;10.23;;;12.30;99.90;;;;;;4998486;28;20174;-79
2023/06/15 04:33:07;;;;;;;17.42;10.55;;;12.30;99.90;;;;;;4997834;28;20030;-79
2023/06/15 04:35:34;;;;;;;19.63;10.00;;;12.30;99.90;;;;;;4994737;28;20061;-78
2023/06/15 04:38:04;;;;;;;14.35;9.50;;;12.30;99.90;;;;;;4997384;28;20038;-78
2023/06/15 04:40:31;;;;;;;15.75;9.80;;;12.30;99.90;;;;;;4998840;28;20992;-78
2023/06/15 04:43:02;;;;;;;19.25;10.57;;;12.40;99.90;;;;;;5001285;28;20316;-79
2023/06/15 04:45:28;;;;;;;17.38;9.27;;;12.40;99.90;;;;;;4998937;28;20447;-79
2023/06/15 04:47:54;;;;;;;13.80;8.70;;;12.50;99.90;;;;;;4997360;28;20053;-78
2023/06/15 04:50:21;;;;;;;16.88;7.65;;;12.50;99.90;;;;;;4997216;28;20054;-79
2023/06/15 04:52:50;;;;;;;13.07;6.38;;;12.50;99.90;;;;;;4996523;28;20042;-78
2023/06/15 04:55:15;;;;;;;9.90;6.85;;;12.50;99.90;;;;;;4995611;28;20022;-78
2023/06/15 04:57:41;;;;;;;13.30;6.85;;;12.60;99.90;;;;;;4997607;28;20103;-78
2023/06/15 05:00:08;;;;;;;11.27;6.90;;;12.70;99.90;;;;;;4995948;28;20034;-78
2023/06/15 05:02:33;;;;;;;13.10;7.47;;;12.70;99.90;;;;;;4996186;28;20302;-78
2023/06/15 05:04:59;;;;;;;10.50;6.45;;;12.80;99.90;;;;;;4993268;28;20034;-78
2023/06/15 05:07:24;;;;;;;9.60;6.50;;;12.90;99.90;;;;;;4992450;28;20063;-77
2023/06/15 05:09:50;;;;;;;11.55;6.78;;;13.00;99.90;;;;;;4996511;28;20026;-78
2023/06/15 05:12:16;;;;;;;10.68;6.93;;;13.10;99.90;;;;;;4996472;28;20053;-78
2023/06/15 05:14:41;;;;;;;10.65;6.68;;;13.20;99.90;;;;;;4995565;28;20026;-78
2023/06/15 05:17:07;;;;;;;10.68;6.57;;;13.30;99.90;;;;;;4995020;28;20371;-80
2023/06/15 05:19:32;;;;;;;12.40;7.55;;;13.40;99.90;;;;;;4994051;28;20402;-71
2023/06/15 05:22:00;;;;;;;12.40;6.68;;;13.50;99.90;;;;;;4993847;28;20981;-71
2023/06/15 05:24:26;;;;;;;10.18;6.20;;;13.60;99.90;;;;;;4993625;28;20104;-71
2023/06/15 05:26:51;;;;;;;10.07;6.72;;;13.80;99.90;;;;;;4993770;28;20117;-71
2023/06/15 05:29:17;;;;;;;10.10;7.03;;;13.90;99.90;;;;;;4994245;28;20048;-71
2023/06/15 05:31:45;;;;;;;14.50;8.13;;;14.00;99.90;;;;;;4993976;28;20041;-72
2023/06/15 05:34:10;;;;;;;13.30;8.70;;;14.10;99.90;;;;;;4995078;28;20041;-71
2023/06/15 05:36:36;;;;;;;16.67;9.38;;;14.20;99.90;;;;;;4995229;28;20410;-71
2023/06/15 05:39:02;;;;;;;15.27;6.97;;;14.30;99.90;;;;;;4995264;28;20042;-71
2023/06/15 05:41:28;;;;;;;11.32;7.30;;;14.30;99.90;;;;;;4994818;28;20091;-71
2023/06/15 05:43:53;;;;;;;12.95;6.72;;;14.40;99.90;;;;;;4996214;28;20430;-71
2023/06/15 05:46:19;;;;;;;13.77;7.63;;;14.50;99.90;;;;;;4995617;28;20108;-72
2023/06/15 05:48:45;;;;;;;11.63;6.70;;;14.60;99.90;;;;;;4995526;28;20088;-71
2023/06/15 05:51:10;;;;;;;14.68;8.05;;;14.60;99.90;;;;;;4994712;28;20033;-71
2023/06/15 05:53:36;;;;;;;11.32;7.20;;;14.70;99.90;;;;;;4995664;28;20025;-71
2023/06/15 05:56:03;;;;;;;12.07;7.95;;;14.80;99.90;;;;;;4994519;28;20043;-71
2023/06/15 05:58:28;;;;;;;13.52;7.88;;;14.70;99.90;;;;;;4995742;28;20034;-70
2023/06/15 06:00:54;;;;;;;9.48;6.93;;;14.80;99.90;;;;;;4994798;28;20931;-71
2023/06/15 06:03:19;;;;;;;13.13;6.93;;;14.80;99.90;;;;;;4995587;28;20101;-71
2023/06/15 06:05:45;;;;;;;11.52;7.47;;;15.00;99.90;;;;;;4995206;28;20041;-71
2023/06/15 06:08:11;;;;;;;11.23;6.75;;;15.10;99.90;;;;;;4996017;28;20037;-71
2023/06/15 06:10:36;;;;;;;10.82;6.68;;;15.20;99.90;;;;;;4995759;28;20041;-71
2023/06/15 06:13:02;;;;;;;16.67;7.28;;;15.30;99.90;;;;;;5001432;28;20021;-71
2023/06/15 06:15:27;;;;;;;11.77;6.78;;;15.50;99.90;;;;;;5000975;28;20037;-71
2023/06/15 06:17:53;;;;;;;12.90;6.75;;;15.60;99.90;;;;;;5002295;28;20041;-72
2023/06/15 06:20:18;;;;;;;12.63;7.43;;;15.70;99.90;;;;;;5000015;28;21503;-72
2023/06/15 06:22:44;;;;;;;15.98;7.20;;;15.80;99.90;;;;;;4996952;28;20393;-71
2023/06/15 06:25:11;;;;;;;10.38;6.10;;;15.90;99.90;;;;;;5003819;28;20096;-71
2023/06/15 06:27:36;;;;;;;12.88;7.85;;;15.90;99.90;;;;;;5004366;28;20033;-71
2023/06/15 06:30:02;;;;;;;10.48;7.30;;;15.90;99.90;;;;;;5000908;28;20123;-71
2023/06/15 06:32:28;;;;;;;9.80;6.10;;;16.00;99.90;;;;;;5001924;28;20039;-71
2023/06/15 06:34:56;;;;;;;11.75;6.25;;;16.10;99.90;;;;;;5003902;28;20108;-72
2023/06/15 06:37:22;;;;;;;11.45;6.72;;;16.20;99.90;;;;;;5002428;28;20735;-72
2023/06/15 06:39:48;;;;;;;18.13;6.70;;;16.30;99.90;;;;;;5001601;28;20682;-71
2023/06/15 06:42:13;;;;;;;15.95;7.07;;;16.30;99.90;;;;;;5000687;28;20060;-71
2023/06/15 06:44:39;;;;;;;9.80;6.53;;;16.50;99.90;;;;;;5003954;28;21112;-71
2023/06/15 06:47:05;;;;;;;7.90;5.97;;;16.60;99.90;;;;;;5001658;28;20092;-71
2023/06/15 06:49:31;;;;;;;11.82;7.13;;;16.70;99.90;;;;;;5001151;28;20129;-71
2023/06/15 06:51:56;;;;;;;21.52;7.05;;;16.80;99.90;;;;;;5000465;28;20091;-72
2023/06/15 06:54:22;;;;;;;10.43;5.88;;;16.80;99.90;;;;;;5001005;28;20058;-71
2023/06/15 06:56:47;;;;;;;14.93;6.30;;;16.90;99.90;;;;;;5002215;28;20033;-71
2023/06/15 06:59:13;;;;;;;11.73;7.13;;;17.00;99.90;;;;;;5000420;28;20029;-71
2023/06/15 07:01:39;;;;;;;14.60;6.68;;;17.00;99.90;;;;;;5002156;28;20061;-71
2023/06/15 07:04:05;;;;;;;12.88;6.85;;;17.10;99.90;;;;;;5001327;28;21253;-72
2023/06/15 07:06:30;;;;;;;11.70;7.05;;;17.20;99.90;;;;;;5000593;28;20061;-71
2023/06/15 07:08:56;;;;;;;12.30;6.65;;;17.20;99.90;;;;;;5002385;28;20040;-71
2023/06/15 07:11:22;;;;;;;16.10;7.00;;;17.30;99.90;;;;;;5001906;28;20029;-72
2023/06/15 07:13:47;;;;;;;8.63;6.03;;;17.40;99.90;;;;;;5001063;28;20037;-71
2023/06/15 07:16:13;;;;;;;11.82;6.85;;;17.50;99.90;;;;;;4998139;28;20053;-71
2023/06/15 07:18:38;;;;;;;12.50;7.30;;;17.60;99.90;;;;;;5002957;28;20029;-71
2023/06/15 07:21:04;;;;;;;9.52;5.93;;;17.60;99.90;;;;;;5002143;28;20828;-71
2023/06/15 07:23:29;;;;;;;9.90;7.10;;;17.60;99.90;;;;;;5000991;28;20033;-71
2023/06/15 07:25:55;;;;;;;11.63;6.38;;;17.80;99.90;;;;;;4997978;28;20043;-71
2023/06/15 07:28:21;;;;;;;17.38;7.20;;;17.80;99.90;;;;;;4999535;28;20037;-71
2023/06/15 07:30:49;;;;;;;11.68;6.15;;;17.90;99.90;;;;;;4999126;28;20033;-71
2023/06/15 07:33:15;;;;;;;11.57;5.88;;;18.00;99.90;;;;;;4997965;28;20494;-71
2023/06/15 07:35:41;;;;;;;13.48;6.30;;;18.10;99.90;;;;;;4997893;28;20041;-71
2023/06/15 07:38:07;;;;;;;16.73;6.95;;;18.10;99.90;;;;;;5000176;28;20476;-71
2023/06/15 07:40:33;;;;;;;12.82;6.05;;;18.20;99.90;;;;;;4997622;28;20106;-71
2023/06/15 07:42:58;;;;;;;11.82;6.05;;;18.20;99.90;;;;;;4997470;28;20509;-72
2023/06/15 07:45:24;;;;;;;11.20;6.50;;;18.30;99.90;;;;;;4998853;28;20030;-71
2023/06/15 07:47:49;;;;;;;13.45;6.95;;;18.40;99.90;;;;;;4999069;28;20030;-72
2023/06/15 07:50:15;;;;;;;12.68;5.97;;;18.50;99.90;;;;;;4996035;28;20037;-71
2023/06/15 07:52:40;;;;;;;10.38;6.22;;;18.60;99.90;;;;;;4998249;28;20656;-71
2023/06/15 07:55:07;;;;;;;12.00;6.60;;;18.70;99.90;;;;;;4999276;28;20037;-72
2023/06/15 07:57:34;;;;;;;11.90;6.32;;;18.80;99.90;;;;;;4998850;28;20038;-72
2023/06/15 08:00:01;;;;;;;12.93;6.45;;;18.90;99.90;;;;;;4996717;28;20026;-71
2023/06/15 08:02:26;;;;;;;13.65;6.45;;;18.90;99.90;;;;;;4996490;28;20034;-71
2023/06/15 08:04:52;;;;;;;8.75;6.28;;;18.90;99.90;;;;;;4997618;28;20506;-72
2023/06/15 08:07:17;;;;;;;28.35;6.65;;;19.00;99.90;;;;;;4998034;28;20026;-71
2023/06/15 08:09:43;;;;;;;10.45;6.03;;;19.00;99.90;;;;;;4996457;28;20453;-71
2023/06/15 08:12:09;;;;;;;11.38;6.30;;;19.00;99.90;;;;;;4997907;28;20034;-71
2023/06/15 08:14:38;;;;;;;12.07;6.28;;;19.10;99.90;;;;;;4997276;28;20121;-71
2023/06/15 08:17:04;;;;;;;9.75;6.28;;;19.20;99.90;;;;;;4997553;28;20073;-71
2023/06/15 08:19:30;;;;;;;7.20;5.80;;;19.30;99.90;;;;;;4996377;28;20116;-72
2023/06/15 08:21:55;;;;;;;11.07;6.00;;;19.40;99.90;;;;;;4997873;28;20034;-72
2023/06/15 08:24:21;;;;;;;9.70;6.30;;;19.50;99.90;;;;;;4995584;28;20037;-71
2023/06/15 08:26:48;;;;;;;14.07;5.97;;;19.60;99.90;;;;;;4995226;28;20080;-71
2023/06/15 08:29:14;;;;;;;8.95;4.95;;;19.70;99.90;;;;;;4995929;28;20100;-72
2023/06/15 08:31:40;;;;;;;10.13;5.70;;;19.80;99.90;;;;;;4995560;28;20037;-72
2023/06/15 08:34:06;;;;;;;10.07;5.60;;;19.80;99.90;;;;;;4995611;28;20100;-71
2023/06/15 08:36:32;;;;;;;9.48;5.82;;;19.70;99.90;;;;;;4994270;28;20505;-71
2023/06/15 08:38:57;;;;;;;14.50;5.60;;;19.80;99.90;;;;;;4995467;28;20061;-71
2023/06/15 08:41:26;;;;;;;9.40;4.68;;;19.90;99.90;;;;;;4996936;28;21429;-72
2023/06/15 08:43:53;;;;;;;6.97;4.30;;;20.00;99.90;;;;;;4997246;28;20116;-71
2023/06/15 08:46:20;;;;;;;12.85;4.47;;;20.20;99.90;;;;;;5000057;28;20097;-80
2023/06/15 08:48:47;;;;;;;12.40;3.83;;;20.40;99.90;;;;;;5004732;28;20046;-83
2023/06/15 08:51:13;;;;;;;8.18;4.07;;;20.50;99.90;;;;;;5002278;28;20030;-81
2023/06/15 08:53:45;;;;;;;6.82;4.40;;;20.50;99.90;;;;;;5001767;28;20041;-81
2023/06/15 08:56:11;;;;;;;9.43;4.10;;;20.60;99.90;;;;;;5000646;28;20049;-83
2023/06/15 08:58:37;;;;;;;9.10;4.03;;;20.70;99.90;;;;;;4999980;28;20109;-81
2023/06/15 09:01:05;;;;;;;8.38;4.25;;;20.80;99.90;;;;;;5001433;28;20612;-81
2023/06/15 09:03:33;;;;;;;7.90;4.60;;;20.90;99.90;;;;;;4999843;28;20026;-82
2023/06/15 09:05:58;;;;;;;7.78;4.25;;;21.00;99.90;;;;;;5002329;28;20036;-82
2023/06/15 09:08:24;;;;;;;6.93;4.25;;;21.00;99.90;;;;;;5002090;28;20038;-81
2023/06/15 09:10:50;;;;;;;9.77;4.35;;;21.10;99.90;;;;;;5001982;28;20053;-82
2023/06/15 09:13:16;;;;;;;7.68;4.57;;;21.30;99.90;;;;;;5003099;28;20034;-82
2023/06/15 09:15:43;;;;;;;6.95;4.15;;;21.40;99.90;;;;;;5002688;28;20041;-82
2023/06/15 09:18:13;;;;;;;7.18;4.18;;;21.40;99.90;;;;;;5003091;28;20036;-81
2023/06/15 09:20:39;;;;;;;10.00;4.57;;;21.50;99.90;;;;;;5003325;28;20121;-81
2023/06/15 09:23:09;;;;;;;7.72;4.40;;;21.60;99.90;;;;;;5003702;28;20030;-81
2023/06/15 09:25:36;;;;;;;9.93;4.03;;;21.50;99.90;;;;;;5000788;28;20077;-82
2023/06/15 09:28:06;;;;;;;6.20;3.80;;;21.40;99.90;;;;;;5002705;28;20049;-81
2023/06/15 09:30:40;;;;;;;7.20;4.30;;;21.20;99.90;;;;;;5000951;28;20067;-81
2023/06/15 09:33:12;;;;;;;7.15;4.15;;;21.10;99.90;;;;;;5002353;28;21024;-82
2023/06/15 09:35:58;;;;;;;6.18;4.20;;;21.20;99.90;;;;;;5000952;28;20043;-82
2023/06/15 09:38:26;;;;;;;5.78;3.83;;;21.40;99.90;;;;;;4986274;28;20077;-83
2023/06/15 09:40:52;;;;;;;5.60;3.97;;;21.80;99.90;;;;;;5000742;28;20036;-83
2023/06/15 09:43:19;;;;;;;7.57;3.97;;;22.10;99.90;;;;;;5002661;28;20037;-83
2023/06/15 09:46:11;;;;;;;9.82;4.05;;;22.10;99.90;;;;;;5002453;28;20324;-83
2023/06/15 09:48:38;;;;;;;8.77;4.05;;;22.10;99.90;;;;;;4997051;28;20180;-81
2023/06/15 09:51:03;;;;;;;6.55;4.45;;;22.40;99.90;;;;;;5003017;28;21145;-81
2023/06/15 09:53:30;;;;;;;9.93;4.40;;;22.70;99.90;;;;;;5004712;28;20026;-84
2023/06/15 09:55:58;;;;;;;8.52;4.10;;;23.10;99.90;;;;;;5001247;28;20694;-78
2023/06/15 09:58:23;;;;;;;7.05;4.18;;;23.40;99.90;;;;;;4996637;28;20152;-77
2023/06/15 10:00:49;;;;;;;7.07;4.05;;;23.90;99.90;;;;;;4994617;28;20061;-76
2023/06/15 10:03:21;;;;;;;5.63;4.18;;;24.30;99.90;;;;;;4996363;28;20030;-77
2023/06/15 10:05:49;;;;;;;8.85;4.03;;;24.40;99.90;;;;;;4994864;28;20034;-76
2023/06/15 10:08:18;;;;;;;6.00;3.75;;;24.40;99.90;;;;;;4995571;28;21507;-77
2023/06/15 10:10:45;;;;;;;5.00;3.28;;;24.60;98.20;;;;;;4995122;28;20039;-77
2023/06/15 10:13:15;;;;;;;5.43;3.00;;;24.80;97.30;;;;;;4996335;28;20034;-76
2023/06/15 10:15:51;;;;;;;8.52;3.28;;;24.90;95.70;;;;;;4994328;28;20080;-77
2023/06/15 10:18:17;;;;;;;4.88;3.10;;;25.00;95.20;;;;;;4996152;28;20026;-77
2023/06/15 10:20:43;;;;;;;5.97;3.33;;;25.10;96.40;;;;;;4996064;28;20041;-76
2023/06/15 10:23:13;;;;;;;6.60;3.53;;;25.30;97.20;;;;;;4996300;28;20048;-77
2023/06/15 10:25:42;;;;;;;4.60;2.88;;;25.70;95.80;;;;;;4995522;28;20034;-77
2023/06/15 10:28:11;;;;;;;6.43;3.70;;;25.90;94.10;;;;;;4992121;28;20034;-77
2023/06/15 10:30:52;;;;;;;8.70;4.00;;;26.10;92.40;;;;;;4992257;28;20694;-79
2023/06/15 10:33:35;;;;;;;5.60;3.20;;;25.90;93.30;;;;;;4993986;28;20131;-76
2023/06/15 10:36:11;;;;;;;5.00;2.60;;;25.60;93.80;;;;;;4994968;28;20092;-76
2023/06/15 10:38:44;;;;;;;6.88;3.13;;;25.80;94.20;;;;;;4995716;28;20041;-76
2023/06/15 10:41:10;;;;;;;6.90;3.20;;;26.00;93.20;;;;;;4995669;28;20026;-77
2023/06/15 10:43:35;;;;;;;8.55;2.97;;;26.40;90.40;;;;;;4994700;28;20037;-77
2023/06/15 10:46:02;;;;;;;6.20;2.95;;;26.30;88.40;;;;;;4994932;28;20486;-77
2023/06/15 10:48:29;;;;;;;7.00;2.90;;;26.40;88.90;;;;;;4994510;28;20056;-77
2023/06/15 10:51:09;;;;;;;3.95;2.92;;;26.40;86.00;;;;;;4994355;28;20083;-77
2023/06/15 10:53:42;;;;;;;4.22;2.55;;;26.60;84.30;;;;;;4996161;28;20079;-77
2023/06/15 10:56:19;;;;;;;5.93;3.03;;;26.70;83.60;;;;;;4993117;28;20041;-76
2023/06/15 10:59:03;;;;;;;6.30;2.83;;;26.80;86.90;;;;;;4997276;28;20030;-77
2023/06/15 11:01:33;;;;;;;5.22;3.00;;;27.10;83.10;;;;;;4997202;28;20030;-76
2023/06/15 11:04:29;;;;;;;6.03;3.30;;;27.00;82.10;;;;;;4998922;28;20045;-76
2023/06/15 11:06:56;;;;;;;7.70;3.20;;;27.30;83.10;;;;;;4997972;28;20493;-76
2023/06/15 11:09:24;;;;;;;5.80;3.00;;;27.50;81.60;;;;;;4998161;28;20058;-76
2023/06/15 11:11:50;;;;;;;7.90;2.72;;;27.00;82.90;;;;;;4998791;28;20038;-76
2023/06/15 11:14:18;;;;;;;5.25;2.78;;;26.80;82.60;;;;;;4998026;28;20044;-76
2023/06/15 11:16:44;;;;;;;5.43;3.38;;;26.20;83.10;;;;;;4996995;28;20049;-76
2023/06/15 11:19:10;;;;;;;4.88;3.50;;;25.90;86.30;;;;;;4997781;28;20038;-76
2023/06/15 11:21:40;;;;;;;5.18;3.10;;;25.50;85.90;;;;;;4998244;28;21564;-77
2023/06/15 11:24:06;;;;;;;4.57;3.00;;;25.20;88.70;;;;;;4998033;28;20213;-76
2023/06/15 11:26:34;;;;;;;6.07;3.42;;;24.90;88.40;;;;;;4997449;28;20687;-76
2023/06/15 11:29:01;;;;;;;4.80;2.75;;;24.70;90.10;;;;;;4998050;28;21009;-77
2023/06/15 11:31:28;;;;;;;6.80;2.92;;;24.50;88.60;;;;;;4997922;28;20042;-76
2023/06/15 11:33:55;;;;;;;8.32;3.22;;;24.50;88.60;;;;;;4997854;28;20031;-76
2023/06/15 11:36:21;;;;;;;8.20;3.33;;;24.60;88.10;;;;;;4997137;28;20387;-76
2023/06/15 11:38:47;;;;;;;6.45;3.35;;;24.50;87.80;;;;;;4998377;28;20640;-76
2023/06/15 11:41:12;;;;;;;17.38;3.90;;;24.50;88.50;;;;;;4997608;28;20045;-77
2023/06/15 11:43:41;;;;;;;6.50;3.63;;;24.70;90.90;;;;;;4996927;28;20115;-76
2023/06/15 11:46:14;;;;;;;5.85;3.40;;;24.60;91.40;;;;;;4996521;28;20793;-76
2023/06/15 11:48:40;;;;;;;6.10;2.92;;;24.30;91.30;;;;;;4997177;28;20406;-76
2023/06/15 11:51:08;;;;;;;5.97;3.50;;;24.10;92.00;;;;;;4998103;28;20453;-76
2023/06/15 11:53:35;;;;;;;7.07;3.22;;;24.10;91.80;;;;;;4998065;28;20740;-76
2023/06/15 11:56:01;;;;;;;7.55;3.38;;;24.00;91.70;;;;;;4997008;28;20224;-76
2023/06/15 11:58:26;;;;;;;7.93;3.30;;;23.80;93.20;;;;;;4997410;28;20409;-76
2023/06/15 12:00:52;;;;;;;5.88;3.50;;;23.50;92.60;;;;;;4997905;28;20044;-76
2023/06/15 12:03:18;;;;;;;3.88;2.95;;;23.30;92.60;;;;;;4998453;28;20127;-76
2023/06/15 12:05:44;;;;;;;6.70;3.08;;;23.20;92.30;;;;;;4996908;28;20051;-76
2023/06/15 12:08:10;;;;;;;5.90;3.40;;;23.20;93.10;;;;;;4996414;28;20034;-76
2023/06/15 12:10:40;;;;;;;6.72;3.00;;;23.40;93.30;;;;;;4995186;28;20038;-76
2023/06/15 12:13:10;;;;;;;7.38;2.88;;;23.70;92.70;;;;;;4998446;28;20064;-76
2023/06/15 12:15:39;;;;;;;4.65;3.20;;;24.10;91.00;;;;;;4997406;28;20124;-77
2023/06/15 12:18:07;;;;;;;4.50;2.75;;;24.70;90.00;;;;;;4994004;28;20091;-77
2023/06/15 12:20:35;;;;;;;4.30;3.13;;;25.10;89.50;;;;;;4996240;28;20029;-82
2023/06/15 12:23:01;;;;;;;4.70;2.70;;;25.60;85.00;;;;;;4995757;28;20121;-77
2023/06/15 12:25:44;;;;;;;5.70;2.95;;;26.00;88.20;;;;;;4997400;28;20034;-79
2023/06/15 12:28:13;;;;;;;4.47;3.00;;;26.60;86.90;;;;;;4995988;28;20109;-77
2023/06/15 12:30:39;;;;;;;5.95;3.00;;;27.00;85.30;;;;;;4998064;28;20515;-77
2023/06/15 12:33:05;;;;;;;5.93;2.90;;;27.60;81.80;;;;;;4996995;28;20026;-77
2023/06/15 12:35:38;;;;;;;6.70;2.78;;;27.70;80.30;;;;;;4997049;28;20030;-77
2023/06/15 12:38:07;;;;;;;7.20;2.83;;;28.20;81.10;;;;;;4996995;28;20659;-77
2023/06/15 12:40:41;;;;;;;3.72;3.00;;;28.30;77.20;;;;;;4996384;28;20120;-77